Time;durP1;ratioP1;P1;durP2;ratioP2;P2;SDS_P1;SDS_P2;PMS_P1;PMS_P2;Temp;Humidity;BMP_temperature;BMP_pressure;BME280_temperature;BME280_humidity;BME280_pressure;Samples;Min_cycle;Max_cycle;Signal;HPM_P1;HPM_P2
2023/06/27 00:01:55;;;;;;;1.25;1.10;;;;;;;;;;6191900;23;20235;-84
2023/06/27 00:04:23;;;;;;;1.65;1.05;;;;;;;;;;6191715;23;20178;-81
2023/06/27 00:06:51;;;;;;;1.00;1.00;;;;;;;;;;6192182;23;20206;-83
2023/06/27 00:09:19;;;;;;;1.50;0.98;;;;;;;;;;6192396;23;20229;-84
2023/06/27 00:11:46;;;;;;;0.80;0.80;;;;;;;;;;6191598;23;20178;-82
2023/06/27 00:14:14;;;;;;;1.55;0.90;;;;;;;;;;6190759;23;20257;-84
2023/06/27 00:16:42;;;;;;;0.90;0.80;;;;;;;;;;6191592;23;20198;-83
2023/06/27 00:19:10;;;;;;;0.60;0.60;;;;;;;;;;6193251;23;20180;-82
2023/06/27 00:21:38;;;;;;;2.10;1.00;;;;;;;;;;6193001;23;20169;-82
2023/06/27 00:24:08;;;;;;;0.63;0.63;;;;;;;;;;6192788;23;20185;-83
2023/06/27 00:26:36;;;;;;;0.70;0.70;;;;;;;;;;6192513;23;20273;-83
2023/06/27 00:29:03;;;;;;;0.90;0.90;;;;;;;;;;6192103;23;20202;-82
2023/06/27 00:31:31;;;;;;;0.88;0.88;;;;;;;;;;6194627;23;20198;-81
2023/06/27 00:33:58;;;;;;;1.45;0.80;;;;;;;;;;6193786;23;20621;-83
2023/06/27 00:36:26;;;;;;;0.80;0.80;;;;;;;;;;6194785;23;20201;-83
2023/06/27 00:38:53;;;;;;;1.00;1.00;;;;;;;;;;6193661;23;20190;-81
2023/06/27 00:41:22;;;;;;;0.80;0.80;;;;;;;;;;6194605;23;20355;-84
2023/06/27 00:43:49;;;;;;;1.30;1.15;;;;;;;;;;6194943;23;20205;-82
2023/06/27 00:46:28;;;;;;;0.80;0.80;;;;;;;;;;6193822;23;20198;-80
2023/06/27 00:48:55;;;;;;;1.20;0.77;;;;;;;;;;6193246;23;20226;-80
2023/06/27 00:51:23;;;;;;;0.70;0.70;;;;;;;;;;6194227;23;20214;-83
2023/06/27 00:53:50;;;;;;;0.93;0.80;;;;;;;;;;6193965;23;20185;-84
2023/06/27 00:56:18;;;;;;;1.58;0.80;;;;;;;;;;6194694;23;20199;-82
2023/06/27 00:58:47;;;;;;;0.98;0.90;;;;;;;;;;6194932;23;20186;-83
2023/06/27 01:01:15;;;;;;;2.20;1.00;;;;;;;;;;6194772;23;20209;-83
2023/06/27 01:03:42;;;;;;;1.17;0.90;;;;;;;;;;6194439;23;20625;-82
2023/06/27 01:06:16;;;;;;;1.02;0.95;;;;;;;;;;6194636;23;20205;-83
2023/06/27 01:08:45;;;;;;;2.17;0.93;;;;;;;;;;6193838;23;20190;-84
2023/06/27 01:11:17;;;;;;;1.20;1.08;;;;;;;;;;6194196;23;20592;-83
2023/06/27 01:13:51;;;;;;;1.08;1.08;;;;;;;;;;6194339;23;20167;-83
2023/06/27 01:16:20;;;;;;;1.10;0.88;;;;;;;;;;6193177;23;20233;-83
2023/06/27 01:18:49;;;;;;;1.00;1.00;;;;;;;;;;6193309;23;20210;-82
2023/06/27 01:21:18;;;;;;;1.67;1.10;;;;;;;;;;6194145;23;20177;-84
2023/06/27 01:23:54;;;;;;;1.17;1.08;;;;;;;;;;6193058;23;20201;-84
2023/06/27 01:26:22;;;;;;;1.00;1.00;;;;;;;;;;6194828;23;20652;-82
2023/06/27 01:28:50;;;;;;;1.20;1.20;;;;;;;;;;6193682;23;20257;-83
2023/06/27 01:31:27;;;;;;;1.88;1.17;;;;;;;;;;6194706;23;20195;-83
2023/06/27 01:33:59;;;;;;;1.13;1.10;;;;;;;;;;6195142;23;20159;-83
2023/06/27 01:36:33;;;;;;;1.05;0.93;;;;;;;;;;6193711;23;20226;-81
2023/06/27 01:39:06;;;;;;;1.67;1.10;;;;;;;;;;6193304;23;20220;-83
2023/06/27 01:41:36;;;;;;;1.50;1.20;;;;;;;;;;6194663;23;20213;-83
2023/06/27 01:44:07;;;;;;;1.45;1.30;;;;;;;;;;6194541;23;20202;-81
2023/06/27 01:46:35;;;;;;;1.48;1.08;;;;;;;;;;6194568;23;20532;-84
2023/06/27 01:49:03;;;;;;;1.77;1.50;;;;;;;;;;6194381;23;20567;-82
2023/06/27 01:51:32;;;;;;;1.33;1.23;;;;;;;;;;6193579;23;20225;-82
2023/06/27 01:54:01;;;;;;;1.25;1.25;;;;;;;;;;6194555;23;20170;-82
2023/06/27 01:56:29;;;;;;;1.27;0.90;;;;;;;;;;6194487;23;20246;-82
2023/06/27 01:58:56;;;;;;;1.73;1.58;;;;;;;;;;6193527;23;20201;-80
2023/06/27 02:01:24;;;;;;;0.80;0.80;;;;;;;;;;6192741;23;20185;-83
2023/06/27 02:03:51;;;;;;;0.80;0.80;;;;;;;;;;6193731;23;20221;-83
2023/06/27 02:06:19;;;;;;;1.05;1.00;;;;;;;;;;6192858;23;20198;-80
2023/06/27 02:08:47;;;;;;;1.50;1.20;;;;;;;;;;6193140;23;20217;-82
2023/06/27 02:11:16;;;;;;;6.68;0.90;;;;;;;;;;6193863;23;20182;-81
2023/06/27 02:13:43;;;;;;;1.20;0.93;;;;;;;;;;6192590;23;20190;-81
2023/06/27 02:16:11;;;;;;;0.80;0.80;;;;;;;;;;6191647;23;20236;-83
2023/06/27 02:18:39;;;;;;;0.95;0.90;;;;;;;;;;6192944;23;20179;-84
2023/06/27 02:21:06;;;;;;;1.10;1.00;;;;;;;;;;6193303;23;20202;-82
2023/06/27 02:23:34;;;;;;;1.00;0.95;;;;;;;;;;6192487;23;20178;-84
2023/06/27 02:26:03;;;;;;;0.85;0.85;;;;;;;;;;6190170;23;20248;-81
2023/06/27 02:28:32;;;;;;;0.93;0.68;;;;;;;;;;6193208;23;20228;-81
2023/06/27 02:31:00;;;;;;;1.60;1.00;;;;;;;;;;6191902;23;20194;-81
2023/06/27 02:33:27;;;;;;;2.70;1.00;;;;;;;;;;6193084;23;20704;-83
2023/06/27 02:35:55;;;;;;;1.30;0.95;;;;;;;;;;6191497;23;20225;-84
2023/06/27 02:38:22;;;;;;;4.05;1.10;;;;;;;;;;6191389;23;20222;-83
2023/06/27 02:40:50;;;;;;;1.02;1.02;;;;;;;;;;6192840;23;20235;-81
2023/06/27 02:43:17;;;;;;;3.28;2.70;;;;;;;;;;6192719;23;20173;-81
2023/06/27 02:45:46;;;;;;;1.05;0.95;;;;;;;;;;6192182;23;20225;-82
2023/06/27 02:48:14;;;;;;;1.00;0.90;;;;;;;;;;6193890;23;20182;-80
2023/06/27 02:50:41;;;;;;;1.00;1.00;;;;;;;;;;6192959;23;20595;-82
2023/06/27 02:53:09;;;;;;;1.38;0.85;;;;;;;;;;6191490;23;20486;-84
2023/06/27 02:55:36;;;;;;;1.23;0.85;;;;;;;;;;6193495;23;20185;-82
2023/06/27 02:58:04;;;;;;;1.52;0.98;;;;;;;;;;6193607;23;20191;-82
2023/06/27 03:00:32;;;;;;;1.25;1.08;;;;;;;;;;6192814;23;20185;-83
2023/06/27 03:03:01;;;;;;;1.15;1.08;;;;;;;;;;6192898;23;20186;-83
2023/06/27 03:05:28;;;;;;;1.25;1.15;;;;;;;;;;6193603;23;20189;-82
2023/06/27 03:07:56;;;;;;;0.82;0.82;;;;;;;;;;6192486;23;20186;-80
2023/06/27 03:10:23;;;;;;;1.30;1.20;;;;;;;;;;6193178;23;20198;-81
2023/06/27 03:12:51;;;;;;;0.80;0.80;;;;;;;;;;6193306;23;20217;-82
2023/06/27 03:15:18;;;;;;;1.95;1.30;;;;;;;;;;6194636;23;20178;-83
2023/06/27 03:17:45;;;;;;;1.42;1.23;;;;;;;;;;6193088;23;20187;-83
2023/06/27 03:20:15;;;;;;;1.48;0.90;;;;;;;;;;6192551;23;20648;-83
2023/06/27 03:22:43;;;;;;;1.20;1.10;;;;;;;;;;6193535;23;20178;-83
2023/06/27 03:25:11;;;;;;;2.92;1.63;;;;;;;;;;6194051;23;20229;-82
2023/06/27 03:27:38;;;;;;;1.75;1.40;;;;;;;;;;6194509;23;20194;-80
2023/06/27 03:30:07;;;;;;;1.73;1.30;;;;;;;;;;6193971;23;20502;-84
2023/06/27 03:32:35;;;;;;;1.65;1.20;;;;;;;;;;6193460;23;20198;-83
2023/06/27 03:35:03;;;;;;;1.35;1.00;;;;;;;;;;6192618;23;20178;-84
2023/06/27 03:37:33;;;;;;;2.55;1.48;;;;;;;;;;6193299;23;20829;-82
2023/06/27 03:40:01;;;;;;;1.20;1.10;;;;;;;;;;6194579;23;20194;-81
2023/06/27 03:42:28;;;;;;;1.00;0.90;;;;;;;;;;6190528;23;20171;-82
2023/06/27 03:44:56;;;;;;;0.70;0.70;;;;;;;;;;6192778;23;20514;-83
2023/06/27 03:47:24;;;;;;;0.70;0.70;;;;;;;;;;6193254;23;20205;-81
2023/06/27 03:49:52;;;;;;;1.02;0.90;;;;;;;;;;6193437;23;20229;-83
2023/06/27 03:52:19;;;;;;;0.98;0.98;;;;;;;;;;6193967;23;20229;-81
2023/06/27 03:54:48;;;;;;;0.80;0.80;;;;;;;;;;6193376;23;20178;-81
2023/06/27 03:57:16;;;;;;;2.28;1.05;;;;;;;;;;6192001;23;20679;-80
2023/06/27 03:59:43;;;;;;;2.05;1.35;;;;;;;;;;6192916;23;20580;-80
2023/06/27 04:02:11;;;;;;;1.05;0.95;;;;;;;;;;6194599;23;20618;-83
2023/06/27 04:04:39;;;;;;;1.75;1.65;;;;;;;;;;6192836;23;20625;-82
2023/06/27 04:07:07;;;;;;;1.52;1.10;;;;;;;;;;6194518;23;20209;-83
2023/06/27 04:09:34;;;;;;;1.10;0.98;;;;;;;;;;6195268;23;20648;-82
2023/06/27 04:12:04;;;;;;;0.90;0.80;;;;;;;;;;6191972;23;20205;-83
2023/06/27 04:14:31;;;;;;;1.50;1.10;;;;;;;;;;6194104;23;20217;-83
2023/06/27 04:16:59;;;;;;;1.20;1.02;;;;;;;;;;6193823;23;20237;-81
2023/06/27 04:19:26;;;;;;;1.90;1.52;;;;;;;;;;6193003;23;20642;-81
2023/06/27 04:21:54;;;;;;;1.40;1.20;;;;;;;;;;6192605;23;20703;-84
2023/06/27 04:24:21;;;;;;;1.00;0.90;;;;;;;;;;6193701;23;20178;-82
2023/06/27 04:26:48;;;;;;;1.20;1.10;;;;;;;;;;6195280;23;20194;-81
2023/06/27 04:29:17;;;;;;;1.35;1.23;;;;;;;;;;6193997;23;20182;-81
2023/06/27 04:31:45;;;;;;;1.23;1.13;;;;;;;;;;6194744;23;20205;-81
2023/06/27 04:34:12;;;;;;;1.20;1.10;;;;;;;;;;6194141;23;20637;-83
2023/06/27 04:36:40;;;;;;;2.25;1.30;;;;;;;;;;6196062;23;20614;-82
2023/06/27 04:39:08;;;;;;;0.77;0.77;;;;;;;;;;6193583;23;20183;-80
2023/06/27 04:41:35;;;;;;;1.30;1.02;;;;;;;;;;6194487;23;20253;-82
2023/06/27 04:44:03;;;;;;;1.20;1.10;;;;;;;;;;6193086;23;20202;-80
2023/06/27 04:46:32;;;;;;;1.65;1.13;;;;;;;;;;6194887;23;20531;-82
2023/06/27 04:49:00;;;;;;;1.85;1.17;;;;;;;;;;6195191;23;20185;-82
2023/06/27 04:51:29;;;;;;;1.38;1.27;;;;;;;;;;6194725;23;20194;-82
2023/06/27 04:53:57;;;;;;;0.90;0.90;;;;;;;;;;6194387;23;20202;-79
2023/06/27 04:56:26;;;;;;;1.52;1.15;;;;;;;;;;6195042;23;20739;-81
2023/06/27 04:58:54;;;;;;;1.23;0.98;;;;;;;;;;6195008;23;20655;-81
2023/06/27 05:01:21;;;;;;;1.23;1.13;;;;;;;;;;6195616;23;20174;-80
2023/06/27 05:03:50;;;;;;;3.70;1.75;;;;;;;;;;6194429;23;20201;-80
2023/06/27 05:06:17;;;;;;;0.98;0.95;;;;;;;;;;6195294;23;20202;-82
2023/06/27 05:08:45;;;;;;;1.10;1.05;;;;;;;;;;6194400;23;20163;-82
2023/06/27 05:11:13;;;;;;;1.30;1.20;;;;;;;;;;6193525;23;20179;-82
2023/06/27 05:13:40;;;;;;;2.00;1.45;;;;;;;;;;6194882;23;20648;-82
2023/06/27 05:16:08;;;;;;;1.25;1.15;;;;;;;;;;6193580;23;20202;-81
2023/06/27 05:18:35;;;;;;;4.90;1.85;;;;;;;;;;6193945;23;20180;-81
2023/06/27 05:21:04;;;;;;;1.23;1.23;;;;;;;;;;6192406;23;20257;-80
2023/06/27 05:23:32;;;;;;;1.42;1.30;;;;;;;;;;6194198;23;20162;-80
2023/06/27 05:25:59;;;;;;;3.40;1.30;;;;;;;;;;6192520;23;20587;-81
2023/06/27 05:28:27;;;;;;;1.95;1.42;;;;;;;;;;6192679;23;20178;-82
2023/06/27 05:30:55;;;;;;;1.77;1.45;;;;;;;;;;6194030;23;20225;-83
2023/06/27 05:33:23;;;;;;;1.40;1.30;;;;;;;;;;6193868;23;20601;-82
2023/06/27 05:35:50;;;;;;;1.85;1.33;;;;;;;;;;6192846;23;20513;-83
2023/06/27 05:38:19;;;;;;;1.30;1.20;;;;;;;;;;6190220;23;20241;-83
2023/06/27 05:40:47;;;;;;;3.10;1.40;;;;;;;;;;6192446;23;20205;-87
2023/06/27 05:43:14;;;;;;;1.42;1.33;;;;;;;;;;6195158;23;20179;-86
2023/06/27 05:45:42;;;;;;;2.13;1.23;;;;;;;;;;6195657;23;20181;-85
2023/06/27 05:48:09;;;;;;;1.75;1.38;;;;;;;;;;6194723;23;20181;-86
2023/06/27 05:50:37;;;;;;;1.42;1.33;;;;;;;;;;6196129;23;20189;-86
2023/06/27 05:53:04;;;;;;;1.45;1.20;;;;;;;;;;6193983;23;20206;-87
2023/06/27 05:55:33;;;;;;;1.70;1.60;;;;;;;;;;6193973;23;20205;-87
2023/06/27 05:58:01;;;;;;;1.23;1.20;;;;;;;;;;6194708;23;20253;-86
2023/06/27 06:00:28;;;;;;;1.50;1.15;;;;;;;;;;6193931;23;20181;-86
2023/06/27 06:02:56;;;;;;;1.33;1.23;;;;;;;;;;6194822;23;20202;-87
2023/06/27 06:05:23;;;;;;;1.88;1.65;;;;;;;;;;6192999;23;20186;-86
2023/06/27 06:07:51;;;;;;;3.90;1.40;;;;;;;;;;6191197;23;20201;-85
2023/06/27 06:10:21;;;;;;;2.67;1.60;;;;;;;;;;6192974;23;20174;-87
2023/06/27 06:12:50;;;;;;;2.90;1.63;;;;;;;;;;6192269;23;20198;-86
2023/06/27 06:15:18;;;;;;;1.08;0.98;;;;;;;;;;6191452;23;20553;-87
2023/06/27 06:17:45;;;;;;;1.40;1.10;;;;;;;;;;6189426;23;20546;-88
2023/06/27 06:20:13;;;;;;;1.23;1.10;;;;;;;;;;6190112;23;20179;-86
2023/06/27 06:22:41;;;;;;;1.13;1.05;;;;;;;;;;6191300;23;20198;-87
2023/06/27 06:25:09;;;;;;;1.60;1.50;;;;;;;;;;6190904;23;20210;-88
2023/06/27 06:27:37;;;;;;;4.90;2.08;;;;;;;;;;6192409;23;20206;-86
2023/06/27 06:30:08;;;;;;;13.43;3.35;;;;;;;;;;6193725;23;20230;-85
2023/06/27 06:32:35;;;;;;;2.42;1.50;;;;;;;;;;6194496;23;20183;-86
2023/06/27 06:35:03;;;;;;;1.52;1.40;;;;;;;;;;6194103;23;20198;-85
2023/06/27 06:37:30;;;;;;;2.38;1.23;;;;;;;;;;6194175;23;20206;-86
2023/06/27 06:39:58;;;;;;;2.17;1.52;;;;;;;;;;6192290;23;20178;-87
2023/06/27 06:42:25;;;;;;;2.35;1.27;;;;;;;;;;6191488;23;20170;-86
2023/06/27 06:44:53;;;;;;;1.63;1.27;;;;;;;;;;6191102;23;20187;-85
2023/06/27 06:47:22;;;;;;;4.03;2.05;;;;;;;;;;6191378;23;20194;-86
2023/06/27 06:49:49;;;;;;;1.73;1.63;;;;;;;;;;6192488;23;20190;-84
2023/06/27 06:52:17;;;;;;;1.50;1.40;;;;;;;;;;6191526;23;20637;-84
2023/06/27 06:54:44;;;;;;;1.80;1.70;;;;;;;;;;6191121;23;20171;-84
2023/06/27 06:57:12;;;;;;;1.83;1.70;;;;;;;;;;6191116;23;20198;-86
2023/06/27 06:59:40;;;;;;;1.77;1.65;;;;;;;;;;6191160;23;20178;-84
2023/06/27 07:02:07;;;;;;;2.38;1.52;;;;;;;;;;6190805;23;20166;-85
2023/06/27 07:04:36;;;;;;;1.70;1.60;;;;;;;;;;6191269;23;20212;-87
2023/06/27 07:07:04;;;;;;;2.97;1.70;;;;;;;;;;6190244;23;20221;-86
2023/06/27 07:09:32;;;;;;;1.98;1.38;;;;;;;;;;6190682;23;20522;-85
2023/06/27 07:11:59;;;;;;;2.53;2.28;;;;;;;;;;6190519;23;20174;-86
2023/06/27 07:14:27;;;;;;;1.83;1.35;;;;;;;;;;6191401;23;20222;-85
2023/06/27 07:16:54;;;;;;;1.70;1.55;;;;;;;;;;6193571;23;20194;-86
2023/06/27 07:19:22;;;;;;;2.72;1.70;;;;;;;;;;6192572;23;20170;-86
2023/06/27 07:21:51;;;;;;;3.58;1.70;;;;;;;;;;6192949;23;20253;-87
2023/06/27 07:24:19;;;;;;;3.85;1.70;;;;;;;;;;6193035;23;20182;-85
2023/06/27 07:26:46;;;;;;;2.13;1.50;;;;;;;;;;6192882;23;20218;-86
2023/06/27 07:29:14;;;;;;;2.08;1.67;;;;;;;;;;6194747;23;20220;-85
2023/06/27 07:31:41;;;;;;;2.33;2.13;;;;;;;;;;6194608;23;20194;-85
2023/06/27 07:34:09;;;;;;;2.53;1.60;;;;;;;;;;6194464;23;20220;-84
2023/06/27 07:36:38;;;;;;;3.20;1.50;;;;;;;;;;6193343;23;20194;-85
2023/06/27 07:39:07;;;;;;;3.22;1.65;;;;;;;;;;6195808;23;20185;-85
2023/06/27 07:41:34;;;;;;;2.75;1.65;;;;;;;;;;6196199;23;20174;-85
2023/06/27 07:44:02;;;;;;;2.25;1.70;;;;;;;;;;6197690;23;20174;-85
2023/06/27 07:46:30;;;;;;;4.10;1.58;;;;;;;;;;6197318;23;20193;-85
2023/06/27 07:48:59;;;;;;;2.03;1.50;;;;;;;;;;6197260;23;20171;-85
2023/06/27 07:51:27;;;;;;;4.60;1.77;;;;;;;;;;6194987;23;20170;-87
2023/06/27 07:53:54;;;;;;;1.98;1.33;;;;;;;;;;6195223;23;20220;-87
2023/06/27 07:56:23;;;;;;;2.95;1.60;;;;;;;;;;6193259;23;20218;-86
2023/06/27 07:58:51;;;;;;;1.58;1.35;;;;;;;;;;6195821;23;20186;-86
2023/06/27 08:01:18;;;;;;;1.70;1.60;;;;;;;;;;6195559;23;20170;-86
2023/06/27 08:03:58;;;;;;;1.85;1.27;;;;;;;;;;6197629;23;20179;-86
2023/06/27 08:06:25;;;;;;;2.85;1.30;;;;;;;;;;6195076;23;20190;-87
2023/06/27 08:08:53;;;;;;;2.05;1.90;;;;;;;;;;6195543;23;20171;-87
2023/06/27 08:11:21;;;;;;;2.05;1.55;;;;;;;;;;6194283;23;20545;-87
2023/06/27 08:13:50;;;;;;;3.15;2.05;;;;;;;;;;6195665;23;20181;-86
2023/06/27 08:16:17;;;;;;;2.33;1.95;;;;;;;;;;6195413;23;20518;-86
2023/06/27 08:18:45;;;;;;;1.77;1.48;;;;;;;;;;6194772;23;20194;-86
2023/06/27 08:21:12;;;;;;;1.98;1.42;;;;;;;;;;6194071;23;20174;-85
2023/06/27 08:23:40;;;;;;;1.98;1.60;;;;;;;;;;6193501;23;20170;-86
2023/06/27 08:26:07;;;;;;;1.55;1.45;;;;;;;;;;6194444;23;20217;-87
2023/06/27 08:28:35;;;;;;;2.05;1.50;;;;;;;;;;6194104;23;20167;-86
2023/06/27 08:31:04;;;;;;;2.47;1.60;;;;;;;;;;6194000;23;20181;-86
2023/06/27 08:33:32;;;;;;;2.42;2.20;;;;;;;;;;6193845;23;20174;-86
2023/06/27 08:35:59;;;;;;;2.35;1.40;;;;;;;;;;6193883;23;20245;-87
2023/06/27 08:38:27;;;;;;;5.35;2.08;;;;;;;;;;6193563;23;20179;-85
2023/06/27 08:40:56;;;;;;;1.85;1.52;;;;;;;;;;6194273;23;20159;-86
2023/06/27 08:43:24;;;;;;;4.95;2.60;;;;;;;;;;6195689;23;20178;-86
2023/06/27 08:45:55;;;;;;;1.40;1.30;;;;;;;;;;6194540;23;20242;-86
2023/06/27 08:48:24;;;;;;;2.33;1.38;;;;;;;;;;6194008;23;20156;-86
2023/06/27 08:50:54;;;;;;;4.28;2.63;;;;;;;;;;6190140;23;20672;-83
2023/06/27 08:53:24;;;;;;;3.15;1.88;;;;;;;;;;6189424;23;20178;-84
2023/06/27 08:55:57;;;;;;;1.83;1.45;;;;;;;;;;6189716;23;20278;-84
2023/06/27 08:58:28;;;;;;;3.22;2.08;;;;;;;;;;6191123;23;20258;-84
2023/06/27 09:00:56;;;;;;;3.45;1.50;;;;;;;;;;6191461;23;20235;-83
2023/06/27 09:03:25;;;;;;;3.72;1.67;;;;;;;;;;6191191;23;20257;-83
2023/06/27 09:05:53;;;;;;;4.95;1.67;;;;;;;;;;6191505;23;20218;-85
2023/06/27 09:08:21;;;;;;;2.13;1.70;;;;;;;;;;6191194;23;20230;-84
2023/06/27 09:10:49;;;;;;;3.58;2.00;;;;;;;;;;6190744;23;20653;-83
2023/06/27 09:13:17;;;;;;;1.35;1.20;;;;;;;;;;6190998;23;20215;-84
2023/06/27 09:15:44;;;;;;;1.50;1.40;;;;;;;;;;6189714;23;20198;-83
2023/06/27 09:18:12;;;;;;;3.10;2.08;;;;;;;;;;6191218;23;20205;-83
2023/06/27 09:20:41;;;;;;;2.78;1.20;;;;;;;;;;6190315;23;20249;-83
2023/06/27 09:23:08;;;;;;;4.28;1.30;;;;;;;;;;6189326;23;20510;-83
2023/06/27 09:25:36;;;;;;;1.63;1.20;;;;;;;;;;6190336;23;20181;-83
2023/06/27 09:28:17;;;;;;;2.08;1.48;;;;;;;;;;6190643;23;20217;-82
2023/06/27 09:30:54;;;;;;;1.30;1.20;;;;;;;;;;6190466;23;20189;-84
2023/06/27 09:33:22;;;;;;;1.02;0.93;;;;;;;;;;6189670;23;20664;-84
2023/06/27 09:35:51;;;;;;;1.50;1.40;;;;;;;;;;6189916;23;20198;-83
2023/06/27 09:38:20;;;;;;;1.92;1.70;;;;;;;;;;6189826;23;20206;-83
2023/06/27 09:40:49;;;;;;;2.22;1.80;;;;;;;;;;6190819;23;20554;-84
2023/06/27 09:43:16;;;;;;;2.75;1.75;;;;;;;;;;6189646;23;20185;-85
2023/06/27 09:45:44;;;;;;;1.85;0.98;;;;;;;;;;6189136;23;20261;-85
2023/06/27 09:48:11;;;;;;;3.22;1.30;;;;;;;;;;6190704;23;20238;-83
2023/06/27 09:50:40;;;;;;;1.33;1.23;;;;;;;;;;6190693;23;20198;-85
2023/06/27 09:53:09;;;;;;;2.53;1.63;;;;;;;;;;6190404;23;20186;-86
2023/06/27 09:55:37;;;;;;;2.40;1.23;;;;;;;;;;6189419;23;20653;-85
2023/06/27 09:58:05;;;;;;;1.30;1.20;;;;;;;;;;6189493;23;20216;-85
2023/06/27 10:00:32;;;;;;;1.60;1.33;;;;;;;;;;6188581;23;20182;-84
2023/06/27 10:03:00;;;;;;;1.85;1.60;;;;;;;;;;6187609;23;20178;-85
2023/06/27 10:05:27;;;;;;;1.92;1.10;;;;;;;;;;6189403;23;20175;-85
2023/06/27 10:07:55;;;;;;;1.50;1.25;;;;;;;;;;6188840;23;20210;-84
2023/06/27 10:10:27;;;;;;;2.05;1.35;;;;;;;;;;6189826;23;20179;-83
2023/06/27 10:12:55;;;;;;;2.60;1.50;;;;;;;;;;6188388;23;20166;-84
2023/06/27 10:15:22;;;;;;;1.45;1.35;;;;;;;;;;6190482;23;20704;-85
2023/06/27 10:17:50;;;;;;;1.77;1.45;;;;;;;;;;6190240;23;20226;-83
2023/06/27 10:20:19;;;;;;;2.35;1.52;;;;;;;;;;6190252;23;20217;-84
2023/06/27 10:22:47;;;;;;;2.28;1.70;;;;;;;;;;6191300;23;20178;-84
2023/06/27 10:25:15;;;;;;;1.48;1.38;;;;;;;;;;6191424;23;20629;-83
2023/06/27 10:27:43;;;;;;;1.95;1.30;;;;;;;;;;6190606;23;20699;-83
2023/06/27 10:30:25;;;;;;;2.15;1.40;;;;;;;;;;6190324;23;20489;-83
2023/06/27 10:32:53;;;;;;;1.50;1.40;;;;;;;;;;6189976;23;20205;-83
2023/06/27 10:35:28;;;;;;;3.08;1.52;;;;;;;;;;6189778;23;20195;-84
2023/06/27 10:38:09;;;;;;;1.67;1.50;;;;;;;;;;6190768;23;20189;-84
2023/06/27 10:41:23;;;;;;;2.30;1.58;;;;;;;;;;6190349;23;20178;-84
2023/06/27 10:43:53;;;;;;;2.45;1.38;;;;;;;;;;6190778;23;20189;-85
2023/06/27 10:46:22;;;;;;;2.05;1.30;;;;;;;;;;6190474;23;20202;-85
2023/06/27 10:48:53;;;;;;;1.67;1.10;;;;;;;;;;6189591;23;20250;-84
2023/06/27 10:51:23;;;;;;;5.32;1.67;;;;;;;;;;6190963;23;20221;-84
2023/06/27 10:54:14;;;;;;;3.83;1.48;;;;;;;;;;6190412;23;20180;-85
2023/06/27 10:56:44;;;;;;;3.08;1.50;;;;;;;;;;6190482;23;20202;-84
2023/06/27 10:59:15;;;;;;;2.63;1.83;;;;;;;;;;6190865;23;20648;-84
2023/06/27 11:01:44;;;;;;;1.88;1.30;;;;;;;;;;6190835;23;20163;-85
2023/06/27 11:04:19;;;;;;;5.10;1.70;;;;;;;;;;6190982;23;20213;-84
2023/06/27 11:06:47;;;;;;;3.58;1.58;;;;;;;;;;6189836;23;20677;-83
2023/06/27 11:09:17;;;;;;;1.42;1.33;;;;;;;;;;6188845;23;20569;-84
2023/06/27 11:11:55;;;;;;;3.90;1.70;;;;;;;;;;6190728;23;20249;-84
2023/06/27 11:14:37;;;;;;;6.68;1.60;;;;;;;;;;6189967;23;20169;-84
2023/06/27 11:17:05;;;;;;;3.50;1.52;;;;;;;;;;6188840;23;20277;-86
2023/06/27 11:19:34;;;;;;;1.45;1.33;;;;;;;;;;6188106;23;20520;-85
2023/06/27 11:22:02;;;;;;;4.03;1.50;;;;;;;;;;6190895;23;20213;-85
2023/06/27 11:24:30;;;;;;;3.05;1.60;;;;;;;;;;6190459;23;20233;-84
2023/06/27 11:26:58;;;;;;;1.90;1.60;;;;;;;;;;6189889;23;20201;-85
2023/06/27 11:29:26;;;;;;;1.42;1.33;;;;;;;;;;6188854;23;20215;-87
2023/06/27 11:31:56;;;;;;;2.45;1.42;;;;;;;;;;6187901;23;20178;-87
2023/06/27 11:34:26;;;;;;;1.75;1.30;;;;;;;;;;6185871;23;20181;-88
2023/06/27 11:36:54;;;;;;;1.38;1.25;;;;;;;;;;6189015;23;20198;-87
2023/06/27 11:39:22;;;;;;;1.65;1.40;;;;;;;;;;6190881;23;20233;-88
2023/06/27 11:41:49;;;;;;;1.77;1.58;;;;;;;;;;6190464;23;20212;-87
2023/06/27 11:44:19;;;;;;;1.50;1.40;;;;;;;;;;6190513;23;20155;-87
2023/06/27 11:46:49;;;;;;;2.00;1.50;;;;;;;;;;6190326;23;20205;-88
2023/06/27 11:49:21;;;;;;;2.88;1.80;;;;;;;;;;6191104;23;20210;-88
2023/06/27 11:51:49;;;;;;;1.95;1.65;;;;;;;;;;6191041;23;20173;-88
2023/06/27 11:54:17;;;;;;;1.23;1.13;;;;;;;;;;6190678;23;20174;-87
2023/06/27 11:56:45;;;;;;;1.20;1.10;;;;;;;;;;6191193;23;20543;-87
2023/06/27 11:59:13;;;;;;;1.67;1.23;;;;;;;;;;6192576;23;20206;-87
2023/06/27 12:01:42;;;;;;;3.45;1.45;;;;;;;;;;6192071;23;20217;-87
2023/06/27 12:04:18;;;;;;;1.50;1.40;;;;;;;;;;6192496;23;20210;-87
2023/06/27 12:06:48;;;;;;;3.60;2.20;;;;;;;;;;6192309;23;20230;-88
2023/06/27 12:09:24;;;;;;;1.67;1.58;;;;;;;;;;6192327;23;20581;-87
2023/06/27 12:11:54;;;;;;;1.98;1.42;;;;;;;;;;6191410;23;20175;-88
2023/06/27 12:14:26;;;;;;;1.20;1.10;;;;;;;;;;6191610;23;20159;-88
2023/06/27 12:16:53;;;;;;;1.58;1.48;;;;;;;;;;6190544;23;20591;-87
2023/06/27 12:19:24;;;;;;;1.40;1.25;;;;;;;;;;6190346;23;20170;-87
2023/06/27 12:21:52;;;;;;;1.27;1.15;;;;;;;;;;6189248;23;20193;-87
2023/06/27 12:24:20;;;;;;;3.10;2.33;;;;;;;;;;6191206;23;20171;-87
2023/06/27 12:26:48;;;;;;;1.58;1.30;;;;;;;;;;6192619;23;20190;-88
2023/06/27 12:29:16;;;;;;;1.67;1.40;;;;;;;;;;6192267;23;20162;-87
2023/06/27 12:31:43;;;;;;;2.15;1.38;;;;;;;;;;6192576;23;20209;-87
2023/06/27 12:34:11;;;;;;;1.67;1.10;;;;;;;;;;6190781;23;20226;-88
2023/06/27 12:36:40;;;;;;;1.52;1.20;;;;;;;;;;6192538;23;20237;-88
2023/06/27 12:39:07;;;;;;;3.88;1.20;;;;;;;;;;6193461;23;20202;-88
2023/06/27 12:41:35;;;;;;;1.27;1.17;;;;;;;;;;6193092;23;20197;-87
2023/06/27 12:44:02;;;;;;;2.55;1.60;;;;;;;;;;6192607;23;20177;-87
2023/06/27 12:46:31;;;;;;;1.52;1.25;;;;;;;;;;6194404;23;20688;-88
2023/06/27 12:48:58;;;;;;;1.77;1.50;;;;;;;;;;6193956;23;20181;-87
2023/06/27 12:51:26;;;;;;;1.30;1.20;;;;;;;;;;6194922;23;20183;-87
2023/06/27 12:53:55;;;;;;;1.77;1.38;;;;;;;;;;6193998;23;20210;-87
2023/06/27 12:56:23;;;;;;;1.55;1.40;;;;;;;;;;6193999;23;20198;-87
2023/06/27 12:58:51;;;;;;;1.90;1.70;;;;;;;;;;6193332;23;20625;-87
2023/06/27 13:01:23;;;;;;;2.20;1.85;;;;;;;;;;6193289;23;20174;-88
2023/06/27 13:03:51;;;;;;;1.85;1.50;;;;;;;;;;6192385;23;20166;-87
2023/06/27 13:06:18;;;;;;;2.83;1.80;;;;;;;;;;6192457;23;20194;-87
2023/06/27 13:08:46;;;;;;;2.20;1.73;;;;;;;;;;6192254;23;20233;-87
2023/06/27 13:11:15;;;;;;;1.98;1.55;;;;;;;;;;6193119;23;20586;-87
2023/06/27 13:13:43;;;;;;;2.75;1.60;;;;;;;;;;6193630;23;20181;-88
2023/06/27 13:16:11;;;;;;;1.58;1.48;;;;;;;;;;6194709;23;20233;-88
2023/06/27 13:18:39;;;;;;;1.33;1.20;;;;;;;;;;6192139;23;20186;-87
2023/06/27 13:21:07;;;;;;;2.03;1.35;;;;;;;;;;6192281;23;20179;-87
2023/06/27 13:23:35;;;;;;;1.48;1.38;;;;;;;;;;6192418;23;20278;-87
2023/06/27 13:26:03;;;;;;;2.10;1.85;;;;;;;;;;6191056;23;20599;-86
2023/06/27 13:28:37;;;;;;;2.58;1.33;;;;;;;;;;6190687;23;20245;-85
2023/06/27 13:31:05;;;;;;;2.00;1.42;;;;;;;;;;6191409;23;20228;-86
2023/06/27 13:33:33;;;;;;;11.75;1.88;;;;;;;;;;6191160;23;20178;-86
2023/06/27 13:36:00;;;;;;;3.00;1.30;;;;;;;;;;6191400;23;20209;-86
2023/06/27 13:38:28;;;;;;;1.50;1.40;;;;;;;;;;6190119;23;20244;-87
2023/06/27 13:40:55;;;;;;;1.10;1.10;;;;;;;;;;6190597;23;20262;-86
2023/06/27 13:43:23;;;;;;;1.35;1.27;;;;;;;;;;6190459;23;20517;-85
2023/06/27 13:45:53;;;;;;;3.72;2.00;;;;;;;;;;6191007;23;20665;-86
2023/06/27 13:48:21;;;;;;;3.03;1.48;;;;;;;;;;6191911;23;20155;-86
2023/06/27 13:50:49;;;;;;;2.97;1.88;;;;;;;;;;6191474;23;20634;-86
2023/06/27 13:53:16;;;;;;;2.95;1.70;;;;;;;;;;6190891;23;20254;-86
2023/06/27 13:55:45;;;;;;;2.05;1.50;;;;;;;;;;6190655;23;20257;-86
2023/06/27 13:58:13;;;;;;;1.67;1.42;;;;;;;;;;6192002;23;20226;-86
2023/06/27 14:00:40;;;;;;;1.95;1.75;;;;;;;;;;6190407;23;20262;-86
2023/06/27 14:03:09;;;;;;;2.42;1.60;;;;;;;;;;6189409;23;20174;-86
2023/06/27 14:05:37;;;;;;;1.77;1.60;;;;;;;;;;6191521;23;20217;-86
2023/06/27 14:08:04;;;;;;;1.40;1.30;;;;;;;;;;6191597;23;20198;-86
2023/06/27 14:10:32;;;;;;;1.58;1.48;;;;;;;;;;6191346;23;20185;-86
2023/06/27 14:13:00;;;;;;;2.47;1.67;;;;;;;;;;6190849;23;20185;-86
2023/06/27 14:15:29;;;;;;;2.92;2.65;;;;;;;;;;6188606;23;20182;-87
2023/06/27 14:17:57;;;;;;;2.00;1.60;;;;;;;;;;6188034;23;20222;-87
2023/06/27 14:20:26;;;;;;;2.03;1.65;;;;;;;;;;6189641;23;20260;-86
2023/06/27 14:22:57;;;;;;;2.47;1.92;;;;;;;;;;6190072;23;20553;-86
2023/06/27 14:25:25;;;;;;;1.85;1.48;;;;;;;;;;6189748;23;20594;-87
2023/06/27 14:27:53;;;;;;;1.98;1.77;;;;;;;;;;6190837;23;20190;-86
2023/06/27 14:30:20;;;;;;;4.22;2.50;;;;;;;;;;6189224;23;20185;-86
2023/06/27 14:32:49;;;;;;;1.60;1.50;;;;;;;;;;6188843;23;20286;-86
2023/06/27 14:35:18;;;;;;;2.20;1.80;;;;;;;;;;6191072;23;20256;-87
2023/06/27 14:37:47;;;;;;;1.75;1.40;;;;;;;;;;6190971;23;20277;-85
2023/06/27 14:40:16;;;;;;;2.58;1.50;;;;;;;;;;6190387;23;20210;-87
2023/06/27 14:42:44;;;;;;;2.83;1.67;;;;;;;;;;6190188;23;20547;-87
2023/06/27 14:45:13;;;;;;;1.67;1.30;;;;;;;;;;6191507;23;20174;-86
2023/06/27 14:47:40;;;;;;;2.53;1.85;;;;;;;;;;6190095;23;20191;-85
2023/06/27 14:50:08;;;;;;;1.63;1.52;;;;;;;;;;6189755;23;20209;-86
2023/06/27 14:52:36;;;;;;;1.60;1.50;;;;;;;;;;6190787;23;20174;-85